sensor_id;sensor_type;location;lat;lon;timestamp;P1;P2;P0
76049;PMS7003;64967;50.234;19.224;2022-12-05T00:03:58;17.00;13.33;8.33
76049;PMS7003;64967;50.234;19.224;2022-12-05T00:06:27;11.50;10.00;6.00
76049;PMS7003;64967;50.234;19.224;2022-12-05T00:08:55;9.00;7.00;6.00
76049;PMS7003;64967;50.234;19.224;2022-12-05T00:11:23;12.00;9.75;5.50
76049;PMS7003;64967;50.234;19.224;2022-12-05T00:14:01;10.00;5.67;3.33
76049;PMS7003;64967;50.234;19.224;2022-12-05T00:16:30;15.75;12.25;8.00
76049;PMS7003;64967;50.234;19.224;2022-12-05T00:18:59;15.75;9.00;6.00
76049;PMS7003;64967;50.234;19.224;2022-12-05T00:21:28;14.75;11.50;8.75
76049;PMS7003;64967;50.234;19.224;2022-12-05T00:23:57;11.50;9.25;8.75
76049;PMS7003;64967;50.234;19.224;2022-12-05T00:26:25;16.00;12.00;8.33
76049;PMS7003;64967;50.234;19.224;2022-12-05T00:28:53;8.50;8.00;5.00
76049;PMS7003;64967;50.234;19.224;2022-12-05T00:31:22;12.00;9.25;6.25
76049;PMS7003;64967;50.234;19.224;2022-12-05T00:33:51;12.75;8.75;6.00
76049;PMS7003;64967;50.234;19.224;2022-12-05T00:36:20;10.50;8.75;5.75
76049;PMS7003;64967;50.234;19.224;2022-12-05T00:38:51;10.25;9.00;6.00
76049;PMS7003;64967;50.234;19.224;2022-12-05T00:41:22;13.00;11.00;8.50
76049;PMS7003;64967;50.234;19.224;2022-12-05T00:43:51;10.00;8.00;6.00
76049;PMS7003;64967;50.234;19.224;2022-12-05T00:46:19;9.50;5.75;4.50
76049;PMS7003;64967;50.234;19.224;2022-12-05T00:48:48;11.00;8.00;6.00
76049;PMS7003;64967;50.234;19.224;2022-12-05T00:51:18;12.25;9.50;5.50
76049;PMS7003;64967;50.234;19.224;2022-12-05T00:53:48;14.25;12.00;8.00
76049;PMS7003;64967;50.234;19.224;2022-12-05T00:56:17;15.75;11.50;7.50
76049;PMS7003;64967;50.234;19.224;2022-12-05T00:58:46;14.25;12.00;9.00
76049;PMS7003;64967;50.234;19.224;2022-12-05T01:01:19;12.50;10.25;9.00
76049;PMS7003;64967;50.234;19.224;2022-12-05T01:03:49;16.67;14.33;12.00
76049;PMS7003;64967;50.234;19.224;2022-12-05T01:06:18;13.25;10.50;9.00
76049;PMS7003;64967;50.234;19.224;2022-12-05T01:08:47;8.50;5.75;4.75
76049;PMS7003;64967;50.234;19.224;2022-12-05T01:11:14;4.00;2.50;2.00
76049;PMS7003;64967;50.234;19.224;2022-12-05T01:13:43;4.50;3.00;2.00
76049;PMS7003;64967;50.234;19.224;2022-12-05T01:16:30;9.00;7.50;5.25
76049;PMS7003;64967;50.234;19.224;2022-12-05T01:19:01;11.50;8.75;7.00
76049;PMS7003;64967;50.234;19.224;2022-12-05T01:21:33;6.50;5.00;4.00
76049;PMS7003;64967;50.234;19.224;2022-12-05T01:24:00;8.75;5.00;2.00
76049;PMS7003;64967;50.234;19.224;2022-12-05T01:26:27;5.50;4.75;4.00
76049;PMS7003;64967;50.234;19.224;2022-12-05T01:28:54;8.75;5.00;4.00
76049;PMS7003;64967;50.234;19.224;2022-12-05T01:31:26;12.00;9.25;6.00
76049;PMS7003;64967;50.234;19.224;2022-12-05T01:33:56;9.25;8.25;6.00
76049;PMS7003;64967;50.234;19.224;2022-12-05T01:36:25;15.75;11.75;8.00
76049;PMS7003;64967;50.234;19.224;2022-12-05T01:38:53;15.50;8.25;6.00
76049;PMS7003;64967;50.234;19.224;2022-12-05T01:41:22;9.25;8.25;5.00
76049;PMS7003;64967;50.234;19.224;2022-12-05T01:44:04;13.50;13.00;9.00
76049;PMS7003;64967;50.234;19.224;2022-12-05T01:46:39;9.50;8.00;6.00
76049;PMS7003;64967;50.234;19.224;2022-12-05T01:49:14;9.00;4.00;2.00
76049;PMS7003;64967;50.234;19.224;2022-12-05T01:51:47;7.25;5.50;4.25
76049;PMS7003;64967;50.234;19.224;2022-12-05T01:54:17;6.00;5.00;5.00
76049;PMS7003;64967;50.234;19.224;2022-12-05T01:56:49;8.75;6.50;5.50
76049;PMS7003;64967;50.234;19.224;2022-12-05T01:59:21;8.25;8.00;5.00
76049;PMS7003;64967;50.234;19.224;2022-12-05T02:01:52;8.00;7.50;6.00
76049;PMS7003;64967;50.234;19.224;2022-12-05T02:04:20;16.75;11.50;9.00
76049;PMS7003;64967;50.234;19.224;2022-12-05T02:06:51;17.00;12.67;7.67
76049;PMS7003;64967;50.234;19.224;2022-12-05T02:09:36;21.33;16.00;10.67
76049;PMS7003;64967;50.234;19.224;2022-12-05T02:12:27;17.67;13.00;10.33
76049;PMS7003;64967;50.234;19.224;2022-12-05T02:21:26;7.00;6.50;4.50
76049;PMS7003;64967;50.234;19.224;2022-12-05T02:36:29;16.00;12.75;8.25
76049;PMS7003;64967;50.234;19.224;2022-12-05T02:39:16;12.00;8.50;6.00
76049;PMS7003;64967;50.234;19.224;2022-12-05T02:42:07;8.25;5.25;4.00
76049;PMS7003;64967;50.234;19.224;2022-12-05T02:44:48;8.50;6.50;5.00
76049;PMS7003;64967;50.234;19.224;2022-12-05T02:47:28;5.50;5.00;4.00
76049;PMS7003;64967;50.234;19.224;2022-12-05T02:49:59;6.75;5.50;4.25
76049;PMS7003;64967;50.234;19.224;2022-12-05T02:52:26;9.75;9.50;6.00
76049;PMS7003;64967;50.234;19.224;2022-12-05T02:54:55;5.00;4.00;4.00
76049;PMS7003;64967;50.234;19.224;2022-12-05T02:57:23;4.00;4.00;2.00
76049;PMS7003;64967;50.234;19.224;2022-12-05T02:59:50;4.50;3.75;2.00
76049;PMS7003;64967;50.234;19.224;2022-12-05T03:02:37;4.75;4.00;2.00
76049;PMS7003;64967;50.234;19.224;2022-12-05T03:05:13;3.00;3.00;1.75
76049;PMS7003;64967;50.234;19.224;2022-12-05T03:07:47;5.00;4.00;3.50
76049;PMS7003;64967;50.234;19.224;2022-12-05T03:10:18;4.00;2.50;2.00
76049;PMS7003;64967;50.234;19.224;2022-12-05T03:12:49;5.75;4.00;2.00
76049;PMS7003;64967;50.234;19.224;2022-12-05T03:15:21;4.00;2.00;1.00
76049;PMS7003;64967;50.234;19.224;2022-12-05T03:20:48;9.00;9.00;6.25
76049;PMS7003;64967;50.234;19.224;2022-12-05T03:23:35;8.25;7.25;5.00
76049;PMS7003;64967;50.234;19.224;2022-12-05T03:29:27;12.00;9.00;8.00
76049;PMS7003;64967;50.234;19.224;2022-12-05T03:34:52;6.00;4.00;4.00
76049;PMS7003;64967;50.234;19.224;2022-12-05T03:45:32;10.50;9.00;8.00
76049;PMS7003;64967;50.234;19.224;2022-12-05T03:51:05;9.75;8.25;6.00
76049;PMS7003;64967;50.234;19.224;2022-12-05T03:53:37;13.25;11.00;7.00
76049;PMS7003;64967;50.234;19.224;2022-12-05T03:56:12;12.25;7.75;6.00
76049;PMS7003;64967;50.234;19.224;2022-12-05T03:58:46;15.50;12.00;8.75
76049;PMS7003;64967;50.234;19.224;2022-12-05T04:01:19;16.75;13.00;8.00
76049;PMS7003;64967;50.234;19.224;2022-12-05T04:03:50;14.25;8.50;5.00
76049;PMS7003;64967;50.234;19.224;2022-12-05T04:06:25;4.75;4.50;4.00
76049;PMS7003;64967;50.234;19.224;2022-12-05T04:08:58;11.75;10.00;6.00
76049;PMS7003;64967;50.234;19.224;2022-12-05T04:11:31;9.50;8.75;5.50
76049;PMS7003;64967;50.234;19.224;2022-12-05T04:14:04;12.00;9.25;6.00
76049;PMS7003;64967;50.234;19.224;2022-12-05T04:17:09;14.50;12.00;9.25
76049;PMS7003;64967;50.234;19.224;2022-12-05T04:19:39;16.50;13.25;9.00
76049;PMS7003;64967;50.234;19.224;2022-12-05T04:22:27;9.50;8.00;5.75
76049;PMS7003;64967;50.234;19.224;2022-12-05T04:24:55;6.75;5.25;4.00
76049;PMS7003;64967;50.234;19.224;2022-12-05T04:30:49;9.75;5.25;5.00
76049;PMS7003;64967;50.234;19.224;2022-12-05T04:38:54;8.25;8.00;4.75
76049;PMS7003;64967;50.234;19.224;2022-12-05T04:41:27;13.67;12.00;9.00
76049;PMS7003;64967;50.234;19.224;2022-12-05T04:44:00;13.25;11.25;9.00
76049;PMS7003;64967;50.234;19.224;2022-12-05T04:46:33;13.50;11.50;8.75
76049;PMS7003;64967;50.234;19.224;2022-12-05T04:49:01;17.00;10.50;8.25
76049;PMS7003;64967;50.234;19.224;2022-12-05T04:51:33;6.00;5.00;4.00
76049;PMS7003;64967;50.234;19.224;2022-12-05T04:54:04;5.75;4.75;4.00
76049;PMS7003;64967;50.234;19.224;2022-12-05T04:56:40;12.00;9.00;5.00
76049;PMS7003;64967;50.234;19.224;2022-12-05T04:59:10;4.50;2.00;1.00
76049;PMS7003;64967;50.234;19.224;2022-12-05T05:01:41;6.25;4.25;2.75
76049;PMS7003;64967;50.234;19.224;2022-12-05T05:04:37;7.00;3.00;2.00
76049;PMS7003;64967;50.234;19.224;2022-12-05T05:07:10;7.50;5.00;4.00
76049;PMS7003;64967;50.234;19.224;2022-12-05T05:09:39;6.50;6.00;2.75
76049;PMS7003;64967;50.234;19.224;2022-12-05T05:12:06;8.00;6.00;5.00
76049;PMS7003;64967;50.234;19.224;2022-12-05T05:14:36;11.75;8.75;6.00
76049;PMS7003;64967;50.234;19.224;2022-12-05T05:17:03;8.00;6.00;4.75
76049;PMS7003;64967;50.234;19.224;2022-12-05T05:19:30;6.00;5.25;4.00
76049;PMS7003;64967;50.234;19.224;2022-12-05T05:21:57;5.75;4.50;4.00
76049;PMS7003;64967;50.234;19.224;2022-12-05T05:24:24;6.75;5.00;4.25
76049;PMS7003;64967;50.234;19.224;2022-12-05T05:26:51;5.00;4.00;2.00
76049;PMS7003;64967;50.234;19.224;2022-12-05T05:29:22;4.00;2.00;1.00
76049;PMS7003;64967;50.234;19.224;2022-12-05T05:31:49;0.75;0.75;0.00
76049;PMS7003;64967;50.234;19.224;2022-12-05T05:34:16;1.00;1.00;1.00
76049;PMS7003;64967;50.234;19.224;2022-12-05T05:36:43;0.75;0.75;0.00
76049;PMS7003;64967;50.234;19.224;2022-12-05T05:39:12;5.00;4.00;2.00
76049;PMS7003;64967;50.234;19.224;2022-12-05T05:41:40;9.75;5.25;4.00
76049;PMS7003;64967;50.234;19.224;2022-12-05T05:44:08;3.50;2.50;2.00
76049;PMS7003;64967;50.234;19.224;2022-12-05T05:46:36;4.00;2.00;2.00
76049;PMS7003;64967;50.234;19.224;2022-12-05T05:49:03;3.00;2.00;1.75
76049;PMS7003;64967;50.234;19.224;2022-12-05T05:51:30;4.00;1.00;1.00
76049;PMS7003;64967;50.234;19.224;2022-12-05T05:53:58;5.50;4.25;3.00
76049;PMS7003;64967;50.234;19.224;2022-12-05T05:56:26;6.00;5.00;4.00
76049;PMS7003;64967;50.234;19.224;2022-12-05T05:58:58;4.25;3.50;2.00
76049;PMS7003;64967;50.234;19.224;2022-12-05T06:01:27;4.00;2.00;1.50
76049;PMS7003;64967;50.234;19.224;2022-12-05T06:03:55;7.00;3.00;2.50
76049;PMS7003;64967;50.234;19.224;2022-12-05T06:06:23;4.00;3.75;2.00
76049;PMS7003;64967;50.234;19.224;2022-12-05T06:08:50;6.00;4.25;2.50
76049;PMS7003;64967;50.234;19.224;2022-12-05T06:11:20;8.50;8.00;6.00
76049;PMS7003;64967;50.234;19.224;2022-12-05T06:13:56;14.33;10.33;8.00
76049;PMS7003;64967;50.234;19.224;2022-12-05T06:16:29;17.00;11.33;10.00
76049;PMS7003;64967;50.234;19.224;2022-12-05T06:18:57;12.33;11.67;8.00
76049;PMS7003;64967;50.234;19.224;2022-12-05T06:21:24;16.00;12.00;8.67
76049;PMS7003;64967;50.234;19.224;2022-12-05T06:23:52;24.00;14.33;9.33
76049;PMS7003;64967;50.234;19.224;2022-12-05T06:26:20;18.33;16.00;11.00
76049;PMS7003;64967;50.234;19.224;2022-12-05T06:28:48;27.00;20.00;13.00
76049;PMS7003;64967;50.234;19.224;2022-12-05T06:31:16;20.67;17.00;12.67
76049;PMS7003;64967;50.234;19.224;2022-12-05T06:33:45;25.67;19.33;11.33
76049;PMS7003;64967;50.234;19.224;2022-12-05T06:36:13;19.33;13.67;11.33
76049;PMS7003;64967;50.234;19.224;2022-12-05T06:38:42;16.67;13.67;10.00
76049;PMS7003;64967;50.234;19.224;2022-12-05T06:41:13;20.67;17.33;13.00
76049;PMS7003;64967;50.234;19.224;2022-12-05T06:43:42;19.33;13.67;11.00
76049;PMS7003;64967;50.234;19.224;2022-12-05T06:46:10;10.33;8.33;5.00
76049;PMS7003;64967;50.234;19.224;2022-12-05T06:48:38;9.00;7.33;4.33
76049;PMS7003;64967;50.234;19.224;2022-12-05T06:51:07;6.00;4.00;4.00
76049;PMS7003;64967;50.234;19.224;2022-12-05T06:53:36;6.00;5.00;4.00
76049;PMS7003;64967;50.234;19.224;2022-12-05T06:56:04;5.00;4.00;2.00
76049;PMS7003;64967;50.234;19.224;2022-12-05T06:58:33;4.75;4.50;4.00
76049;PMS7003;64967;50.234;19.224;2022-12-05T07:01:00;5.25;5.25;4.25
76049;PMS7003;64967;50.234;19.224;2022-12-05T07:03:49;12.00;6.00;5.00
76049;PMS7003;64967;50.234;19.224;2022-12-05T07:06:16;6.00;5.00;4.00
76049;PMS7003;64967;50.234;19.224;2022-12-05T07:08:43;5.00;5.00;3.50
76049;PMS7003;64967;50.234;19.224;2022-12-05T07:11:10;6.00;3.50;2.00
76049;PMS7003;64967;50.234;19.224;2022-12-05T07:13:37;3.00;3.00;2.00
76049;PMS7003;64967;50.234;19.224;2022-12-05T07:16:05;4.00;2.00;1.00
76049;PMS7003;64967;50.234;19.224;2022-12-05T07:18:33;1.00;1.00;0.50
76049;PMS7003;64967;50.234;19.224;2022-12-05T07:21:02;4.25;2.00;1.25
76049;PMS7003;64967;50.234;19.224;2022-12-05T07:23:39;3.50;1.25;0.75
76049;PMS7003;64967;50.234;19.224;2022-12-05T07:26:09;7.75;6.00;4.75
76049;PMS7003;64967;50.234;19.224;2022-12-05T07:28:37;7.50;6.00;5.00
76049;PMS7003;64967;50.234;19.224;2022-12-05T07:31:05;9.00;8.00;6.50
76049;PMS7003;64967;50.234;19.224;2022-12-05T07:33:34;17.00;12.75;7.75
76049;PMS7003;64967;50.234;19.224;2022-12-05T07:36:04;13.50;10.00;8.00
76049;PMS7003;64967;50.234;19.224;2022-12-05T07:38:35;9.50;9.00;6.00
76049;PMS7003;64967;50.234;19.224;2022-12-05T07:41:03;9.00;8.25;5.75
76049;PMS7003;64967;50.234;19.224;2022-12-05T07:43:42;17.25;12.00;8.25
76049;PMS7003;64967;50.234;19.224;2022-12-05T07:46:09;11.75;9.00;6.50
76049;PMS7003;64967;50.234;19.224;2022-12-05T07:48:39;9.50;9.00;5.00
76049;PMS7003;64967;50.234;19.224;2022-12-05T07:51:07;14.75;10.25;9.00
76049;PMS7003;64967;50.234;19.224;2022-12-05T07:53:35;13.00;9.00;5.50
76049;PMS7003;64967;50.234;19.224;2022-12-05T07:56:04;13.50;12.00;7.25
76049;PMS7003;64967;50.234;19.224;2022-12-05T07:58:32;11.75;7.50;5.75
76049;PMS7003;64967;50.234;19.224;2022-12-05T08:01:07;9.25;9.00;5.75
76049;PMS7003;64967;50.234;19.224;2022-12-05T08:03:35;11.50;9.00;6.00
76049;PMS7003;64967;50.234;19.224;2022-12-05T08:06:15;10.25;9.00;6.00
76049;PMS7003;64967;50.234;19.224;2022-12-05T08:08:44;9.75;7.75;5.50
76049;PMS7003;64967;50.234;19.224;2022-12-05T08:11:12;6.00;6.00;5.00
76049;PMS7003;64967;50.234;19.224;2022-12-05T08:13:40;9.50;9.50;8.00
76049;PMS7003;64967;50.234;19.224;2022-12-05T08:16:09;11.75;9.00;6.00
76049;PMS7003;64967;50.234;19.224;2022-12-05T08:18:38;8.00;6.00;4.00
76049;PMS7003;64967;50.234;19.224;2022-12-05T08:21:06;5.25;4.75;2.75
76049;PMS7003;64967;50.234;19.224;2022-12-05T08:23:39;3.00;2.00;1.00
76049;PMS7003;64967;50.234;19.224;2022-12-05T08:26:07;2.00;2.00;1.75
76049;PMS7003;64967;50.234;19.224;2022-12-05T08:28:36;4.50;3.00;2.00
76049;PMS7003;64967;50.234;19.224;2022-12-05T08:31:07;1.00;1.00;0.50
76049;PMS7003;64967;50.234;19.224;2022-12-05T08:33:39;2.00;1.00;0.00
76049;PMS7003;64967;50.234;19.224;2022-12-05T08:36:08;3.50;1.25;1.00
76049;PMS7003;64967;50.234;19.224;2022-12-05T08:38:37;4.50;3.00;2.00
76049;PMS7003;64967;50.234;19.224;2022-12-05T08:41:05;2.00;1.25;1.00
76049;PMS7003;64967;50.234;19.224;2022-12-05T08:43:34;5.25;5.25;3.00
76049;PMS7003;64967;50.234;19.224;2022-12-05T08:46:02;5.00;2.00;2.00
76049;PMS7003;64967;50.234;19.224;2022-12-05T08:48:30;6.00;3.00;2.00
76049;PMS7003;64967;50.234;19.224;2022-12-05T08:50:58;2.75;2.50;2.00
76049;PMS7003;64967;50.234;19.224;2022-12-05T08:53:29;9.00;5.50;4.50
76049;PMS7003;64967;50.234;19.224;2022-12-05T08:55:59;5.50;4.50;3.00
76049;PMS7003;64967;50.234;19.224;2022-12-05T08:58:28;6.00;3.00;3.00
76049;PMS7003;64967;50.234;19.224;2022-12-05T09:01:29;4.50;3.00;2.25
76049;PMS7003;64967;50.234;19.224;2022-12-05T09:03:48;6.50;6.00;3.50
76049;PMS7003;64967;50.234;19.224;2022-12-05T09:08:45;10.50;5.75;5.25
76049;PMS7003;64967;50.234;19.224;2022-12-05T09:11:13;9.25;7.00;6.00
76049;PMS7003;64967;50.234;19.224;2022-12-05T09:13:43;9.00;7.00;6.50
76049;PMS7003;64967;50.234;19.224;2022-12-05T09:16:12;10.00;6.50;5.00
76049;PMS7003;64967;50.234;19.224;2022-12-05T09:18:41;10.25;8.75;5.75
76049;PMS7003;64967;50.234;19.224;2022-12-05T09:21:10;2.25;2.25;2.00
76049;PMS7003;64967;50.234;19.224;2022-12-05T09:23:42;5.00;3.50;3.00
76049;PMS7003;64967;50.234;19.224;2022-12-05T09:26:11;6.00;5.00;4.00
76049;PMS7003;64967;50.234;19.224;2022-12-05T09:28:40;4.00;3.00;2.00
76049;PMS7003;64967;50.234;19.224;2022-12-05T09:31:13;3.50;2.00;1.00
76049;PMS7003;64967;50.234;19.224;2022-12-05T09:33:43;9.75;5.25;3.00
76049;PMS7003;64967;50.234;19.224;2022-12-05T09:36:12;13.25;9.25;7.00
76049;PMS7003;64967;50.234;19.224;2022-12-05T09:38:41;12.00;7.75;6.00
76049;PMS7003;64967;50.234;19.224;2022-12-05T09:41:15;10.75;8.00;5.00
76049;PMS7003;64967;50.234;19.224;2022-12-05T09:47:12;4.00;3.00;2.00
76049;PMS7003;64967;50.234;19.224;2022-12-05T09:49:53;1.00;0.75;0.00
76049;PMS7003;64967;50.234;19.224;2022-12-05T09:52:44;2.50;2.00;1.25
76049;PMS7003;64967;50.234;19.224;2022-12-05T09:55:28;5.50;3.00;2.00
76049;PMS7003;64967;50.234;19.224;2022-12-05T09:58:24;3.00;2.00;1.00
76049;PMS7003;64967;50.234;19.224;2022-12-05T10:00:58;12.00;9.50;6.25
76049;PMS7003;64967;50.234;19.224;2022-12-05T10:03:40;13.00;12.25;8.00
76049;PMS7003;64967;50.234;19.224;2022-12-05T10:06:12;9.00;7.75;6.00
76049;PMS7003;64967;50.234;19.224;2022-12-05T10:09:30;6.75;6.00;5.00
76049;PMS7003;64967;50.234;19.224;2022-12-05T10:12:17;8.25;3.25;2.25
76049;PMS7003;64967;50.234;19.224;2022-12-05T10:15:50;6.00;4.50;3.00
76049;PMS7003;64967;50.234;19.224;2022-12-05T10:18:12;4.75;2.50;2.00
76049;PMS7003;64967;50.234;19.224;2022-12-05T10:20:56;2.75;2.00;1.00
76049;PMS7003;64967;50.234;19.224;2022-12-05T10:23:47;5.00;3.00;2.00
76049;PMS7003;64967;50.234;19.224;2022-12-05T10:26:25;2.00;2.00;2.00
76049;PMS7003;64967;50.234;19.224;2022-12-05T10:31:43;2.50;2.25;2.00
76049;PMS7003;64967;50.234;19.224;2022-12-05T10:34:16;0.00;0.00;0.00
76049;PMS7003;64967;50.234;19.224;2022-12-05T10:36:54;2.00;2.00;2.00
76049;PMS7003;64967;50.234;19.224;2022-12-05T10:39:26;2.50;2.00;1.00
76049;PMS7003;64967;50.234;19.224;2022-12-05T10:41:54;2.75;1.25;1.00
76049;PMS7003;64967;50.234;19.224;2022-12-05T10:44:22;5.25;4.00;2.00
76049;PMS7003;64967;50.234;19.224;2022-12-05T10:46:49;5.50;3.00;2.00
76049;PMS7003;64967;50.234;19.224;2022-12-05T10:49:16;5.75;2.50;2.00
76049;PMS7003;64967;50.234;19.224;2022-12-05T10:51:44;3.00;2.25;1.50
76049;PMS7003;64967;50.234;19.224;2022-12-05T10:54:22;3.50;2.00;1.25
76049;PMS7003;64967;50.234;19.224;2022-12-05T10:56:51;3.00;2.25;1.00
76049;PMS7003;64967;50.234;19.224;2022-12-05T10:59:23;2.75;1.50;1.00
76049;PMS7003;64967;50.234;19.224;2022-12-05T11:01:53;2.00;2.00;1.00
76049;PMS7003;64967;50.234;19.224;2022-12-05T11:04:39;4.00;2.75;2.00
76049;PMS7003;64967;50.234;19.224;2022-12-05T11:07:20;9.50;6.25;5.00
76049;PMS7003;64967;50.234;19.224;2022-12-05T11:09:54;2.00;2.00;2.00
76049;PMS7003;64967;50.234;19.224;2022-12-05T11:12:22;5.00;2.75;2.00
76049;PMS7003;64967;50.234;19.224;2022-12-05T11:14:54;5.00;1.25;1.25
76049;PMS7003;64967;50.234;19.224;2022-12-05T11:17:41;1.50;1.00;0.50
76049;PMS7003;64967;50.234;19.224;2022-12-05T11:22:41;1.00;1.00;1.00
76049;PMS7003;64967;50.234;19.224;2022-12-05T11:25:33;4.00;2.00;1.00
76049;PMS7003;64967;50.234;19.224;2022-12-05T11:31:01;1.75;1.00;1.00
76049;PMS7003;64967;50.234;19.224;2022-12-05T11:33:32;2.00;1.00;1.00
76049;PMS7003;64967;50.234;19.224;2022-12-05T11:38:59;1.50;0.00;0.00
76049;PMS7003;64967;50.234;19.224;2022-12-05T12:08:29;8.25;8.00;5.50
76049;PMS7003;64967;50.234;19.224;2022-12-05T12:17:06;3.00;3.00;2.00
76049;PMS7003;64967;50.234;19.224;2022-12-05T12:22:54;1.75;1.75;1.00
76049;PMS7003;64967;50.234;19.224;2022-12-05T12:25:51;5.75;4.75;3.00
76049;PMS7003;64967;50.234;19.224;2022-12-05T12:28:42;4.50;2.50;2.00
76049;PMS7003;64967;50.234;19.224;2022-12-05T12:40:13;1.75;1.00;0.75
76049;PMS7003;64967;50.234;19.224;2022-12-05T12:50:41;2.75;2.75;2.25
76049;PMS7003;64967;50.234;19.224;2022-12-05T12:56:05;5.00;3.25;3.25
76049;PMS7003;64967;50.234;19.224;2022-12-05T13:05:26;15.50;12.25;9.25
76049;PMS7003;64967;50.234;19.224;2022-12-05T13:08:46;18.25;16.00;11.00
76049;PMS7003;64967;50.234;19.224;2022-12-05T13:11:05;20.50;16.25;11.25
76049;PMS7003;64967;50.234;19.224;2022-12-05T13:13:36;16.00;13.00;10.00
76049;PMS7003;64967;50.234;19.224;2022-12-05T13:16:07;17.00;12.75;9.50
76049;PMS7003;64967;50.234;19.224;2022-12-05T13:18:38;9.50;9.50;7.25
76049;PMS7003;64967;50.234;19.224;2022-12-05T13:21:06;9.50;8.50;6.00
76049;PMS7003;64967;50.234;19.224;2022-12-05T13:24:09;8.00;6.00;5.00
76049;PMS7003;64967;50.234;19.224;2022-12-05T13:26:29;6.00;3.00;3.00
76049;PMS7003;64967;50.234;19.224;2022-12-05T13:29:00;5.00;2.75;2.00
76049;PMS7003;64967;50.234;19.224;2022-12-05T13:31:42;5.75;5.00;3.00
76049;PMS7003;64967;50.234;19.224;2022-12-05T13:36:55;1.00;1.00;1.00
76049;PMS7003;64967;50.234;19.224;2022-12-05T13:39:49;1.00;1.00;1.00
76049;PMS7003;64967;50.234;19.224;2022-12-05T13:42:38;1.00;1.00;1.00
76049;PMS7003;64967;50.234;19.224;2022-12-05T13:45:06;1.00;1.00;0.00
76049;PMS7003;64967;50.234;19.224;2022-12-05T13:58:51;0.00;0.00;0.00
76049;PMS7003;64967;50.234;19.224;2022-12-05T14:03:53;3.00;0.00;0.00
76049;PMS7003;64967;50.234;19.224;2022-12-05T14:17:27;3.00;3.00;2.00
76049;PMS7003;64967;50.234;19.224;2022-12-05T14:20:03;2.00;2.00;2.00
76049;PMS7003;64967;50.234;19.224;2022-12-05T14:22:47;8.25;6.00;5.00
76049;PMS7003;64967;50.234;19.224;2022-12-05T14:25:37;5.75;5.75;3.00
76049;PMS7003;64967;50.234;19.224;2022-12-05T14:28:39;6.75;5.25;3.75
76049;PMS7003;64967;50.234;19.224;2022-12-05T14:31:28;4.25;3.00;2.00
76049;PMS7003;64967;50.234;19.224;2022-12-05T14:36:53;7.00;5.00;3.00
76049;PMS7003;64967;50.234;19.224;2022-12-05T14:39:38;2.75;2.25;2.00
76049;PMS7003;64967;50.234;19.224;2022-12-05T14:42:20;2.00;1.00;0.00
76049;PMS7003;64967;50.234;19.224;2022-12-05T14:44:48;2.50;1.75;1.50
76049;PMS7003;64967;50.234;19.224;2022-12-05T14:55:44;3.00;1.00;1.00
76049;PMS7003;64967;50.234;19.224;2022-12-05T15:06:47;2.00;1.25;1.00
76049;PMS7003;64967;50.234;19.224;2022-12-05T15:09:29;1.00;1.00;0.50
76049;PMS7003;64967;50.234;19.224;2022-12-05T15:12:09;3.00;2.00;2.00
76049;PMS7003;64967;50.234;19.224;2022-12-05T15:17:43;4.00;3.00;3.00
76049;PMS7003;64967;50.234;19.224;2022-12-05T15:20:37;3.00;3.00;2.00
76049;PMS7003;64967;50.234;19.224;2022-12-05T15:31:46;1.00;1.00;1.00
76049;PMS7003;64967;50.234;19.224;2022-12-05T15:36:51;1.25;0.00;0.00
76049;PMS7003;64967;50.234;19.224;2022-12-05T15:42:35;1.50;0.00;0.00
76049;PMS7003;64967;50.234;19.224;2022-12-05T15:50:22;0.25;0.25;0.00
76049;PMS7003;64967;50.234;19.224;2022-12-05T15:58:29;17.00;13.00;8.00
76049;PMS7003;64967;50.234;19.224;2022-12-05T16:01:00;10.50;8.00;6.50
76049;PMS7003;64967;50.234;19.224;2022-12-05T16:03:37;7.00;6.00;4.75
76049;PMS7003;64967;50.234;19.224;2022-12-05T16:09:07;23.75;22.00;15.50
76049;PMS7003;64967;50.234;19.224;2022-12-05T16:11:49;28.25;23.00;15.75
76049;PMS7003;64967;50.234;19.224;2022-12-05T16:14:24;20.50;20.50;13.50
76049;PMS7003;64967;50.234;19.224;2022-12-05T16:17:15;25.00;15.75;11.00
76049;PMS7003;64967;50.234;19.224;2022-12-05T16:19:42;21.00;16.75;11.75
76049;PMS7003;64967;50.234;19.224;2022-12-05T16:24:41;12.00;10.00;7.00
76049;PMS7003;64967;50.234;19.224;2022-12-05T16:27:20;7.25;5.75;2.00
76049;PMS7003;64967;50.234;19.224;2022-12-05T16:32:47;15.75;12.75;10.00
76049;PMS7003;64967;50.234;19.224;2022-12-05T16:35:27;11.50;10.25;7.00
76049;PMS7003;64967;50.234;19.224;2022-12-05T16:38:03;8.00;7.00;5.75
76049;PMS7003;64967;50.234;19.224;2022-12-05T16:40:40;12.50;7.25;6.00
76049;PMS7003;64967;50.234;19.224;2022-12-05T16:46:44;6.50;5.50;3.00
76049;PMS7003;64967;50.234;19.224;2022-12-05T16:51:51;5.00;3.00;3.00
76049;PMS7003;64967;50.234;19.224;2022-12-05T16:54:20;3.00;3.00;2.00
76049;PMS7003;64967;50.234;19.224;2022-12-05T16:56:47;5.50;3.00;2.75
76049;PMS7003;64967;50.234;19.224;2022-12-05T16:59:48;8.50;7.50;6.00
76049;PMS7003;64967;50.234;19.224;2022-12-05T17:02:10;11.75;10.00;7.25
76049;PMS7003;64967;50.234;19.224;2022-12-05T17:04:42;22.75;17.25;13.00
76049;PMS7003;64967;50.234;19.224;2022-12-05T17:07:11;13.00;13.00;10.50
76049;PMS7003;64967;50.234;19.224;2022-12-05T17:09:38;14.00;14.00;9.00
76049;PMS7003;64967;50.234;19.224;2022-12-05T17:12:16;10.00;7.50;7.00
76049;PMS7003;64967;50.234;19.224;2022-12-05T17:14:49;8.75;7.25;5.25
76049;PMS7003;64967;50.234;19.224;2022-12-05T17:17:16;10.50;7.75;4.25
76049;PMS7003;64967;50.234;19.224;2022-12-05T17:19:44;6.00;2.00;2.00
76049;PMS7003;64967;50.234;19.224;2022-12-05T17:22:12;2.25;1.50;1.50
76049;PMS7003;64967;50.234;19.224;2022-12-05T17:24:41;3.25;3.00;2.75
76049;PMS7003;64967;50.234;19.224;2022-12-05T17:27:08;3.50;2.00;2.00
76049;PMS7003;64967;50.234;19.224;2022-12-05T17:29:37;2.25;2.00;1.50
76049;PMS7003;64967;50.234;19.224;2022-12-05T17:32:04;3.00;2.50;2.00
76049;PMS7003;64967;50.234;19.224;2022-12-05T17:34:31;3.00;2.25;2.00
76049;PMS7003;64967;50.234;19.224;2022-12-05T17:36:58;3.25;2.00;2.00
76049;PMS7003;64967;50.234;19.224;2022-12-05T17:39:25;3.00;2.00;2.00
76049;PMS7003;64967;50.234;19.224;2022-12-05T17:41:54;2.50;2.00;1.00
76049;PMS7003;64967;50.234;19.224;2022-12-05T17:44:22;6.75;3.00;2.25
76049;PMS7003;64967;50.234;19.224;2022-12-05T17:46:49;7.50;6.00;3.00
76049;PMS7003;64967;50.234;19.224;2022-12-05T17:49:16;7.00;5.00;4.00
76049;PMS7003;64967;50.234;19.224;2022-12-05T17:51:43;2.75;2.00;2.00
76049;PMS7003;64967;50.234;19.224;2022-12-05T17:54:31;3.00;3.00;2.00
76049;PMS7003;64967;50.234;19.224;2022-12-05T17:56:58;3.00;3.00;2.50
76049;PMS7003;64967;50.234;19.224;2022-12-05T17:59:25;3.00;2.00;2.00
76049;PMS7003;64967;50.234;19.224;2022-12-05T18:01:52;5.75;5.00;3.00
76049;PMS7003;64967;50.234;19.224;2022-12-05T18:04:19;3.00;3.00;2.00
76049;PMS7003;64967;50.234;19.224;2022-12-05T18:06:49;5.00;5.00;3.00
76049;PMS7003;64967;50.234;19.224;2022-12-05T18:09:16;9.00;5.50;5.00
76049;PMS7003;64967;50.234;19.224;2022-12-05T18:11:43;12.50;9.00;6.75
76049;PMS7003;64967;50.234;19.224;2022-12-05T18:14:10;13.50;11.00;7.75
76049;PMS7003;64967;50.234;19.224;2022-12-05T18:16:37;10.75;8.00;5.00